createdAt,value
2023-03-06T00:00:50.899Z,5.05
2023-03-06T00:03:17.733Z,6.00
2023-03-06T00:05:44.528Z,5.78
2023-03-06T00:08:11.249Z,5.57
2023-03-06T00:10:38.198Z,5.28
2023-03-06T00:13:06.967Z,5.25
2023-03-06T00:15:34.106Z,5.00
2023-03-06T00:18:04.070Z,5.20
2023-03-06T00:20:30.581Z,5.40
2023-03-06T00:22:57.697Z,6.30
2023-03-06T00:25:24.755Z,5.47
2023-03-06T00:27:57.431Z,5.13
2023-03-06T00:30:24.966Z,4.80
2023-03-06T00:32:54.062Z,5.10
2023-03-06T00:35:21.111Z,5.00
2023-03-06T00:37:47.786Z,4.47
2023-03-06T00:40:19.777Z,6.28
2023-03-06T00:42:46.909Z,6.53
2023-03-06T00:45:14.202Z,5.88
2023-03-06T00:47:41.070Z,5.32
2023-03-06T00:50:08.724Z,5.72
2023-03-06T00:52:35.149Z,6.18
2023-03-06T00:55:01.624Z,6.18
2023-03-06T00:57:28.227Z,5.75
2023-03-06T00:59:57.847Z,5.90
2023-03-06T01:02:24.327Z,5.88
2023-03-06T01:04:59.764Z,6.00
2023-03-06T01:07:27.760Z,5.80
2023-03-06T01:09:54.490Z,5.68
2023-03-06T01:12:23.410Z,5.78
2023-03-06T01:14:50.246Z,6.72
2023-03-06T01:17:17.520Z,5.22
2023-03-06T01:19:43.952Z,6.65
2023-03-06T01:22:10.437Z,5.38
2023-03-06T01:24:36.874Z,6.35
2023-03-06T01:27:03.444Z,6.47
2023-03-06T01:29:29.958Z,4.93
2023-03-06T01:31:56.488Z,5.10
2023-03-06T01:34:24.940Z,6.22
2023-03-06T01:36:51.352Z,5.60
2023-03-06T01:39:17.816Z,5.07
2023-03-06T01:41:44.273Z,5.70
2023-03-06T01:44:13.638Z,5.53
2023-03-06T01:46:41.980Z,5.55
2023-03-06T01:49:25.656Z,5.07
2023-03-06T01:51:57.927Z,5.55
2023-03-06T01:54:28.656Z,5.38
2023-03-06T01:57:04.087Z,6.00
2023-03-06T01:59:32.708Z,6.43
2023-03-06T02:02:01.811Z,6.85
2023-03-06T02:04:31.440Z,5.97
2023-03-06T02:07:00.025Z,6.43
2023-03-06T02:09:30.958Z,6.93
2023-03-06T02:11:57.779Z,6.57
2023-03-06T02:14:25.504Z,6.68
2023-03-06T02:16:52.163Z,6.35
2023-03-06T02:19:36.752Z,6.88
2023-03-06T02:22:05.874Z,6.40
2023-03-06T02:24:42.585Z,6.85
2023-03-06T02:27:10.500Z,6.05
2023-03-06T02:29:37.000Z,7.30
2023-03-06T02:32:04.554Z,5.63
2023-03-06T02:34:47.485Z,6.57
2023-03-06T02:37:13.989Z,6.00
2023-03-06T02:39:45.017Z,6.15
2023-03-06T02:42:18.077Z,6.43
2023-03-06T02:44:44.652Z,6.88
2023-03-06T02:47:11.155Z,7.20
2023-03-06T02:49:37.538Z,6.82
2023-03-06T02:52:04.246Z,7.63
2023-03-06T02:54:30.681Z,7.38
2023-03-06T02:56:57.125Z,8.00
2023-03-06T02:59:23.699Z,7.57
2023-03-06T03:01:50.257Z,6.65
2023-03-06T03:04:16.771Z,6.10
2023-03-06T03:06:46.137Z,7.57
2023-03-06T03:09:12.604Z,7.43
2023-03-06T03:11:39.209Z,6.97
2023-03-06T03:14:07.644Z,7.57
2023-03-06T03:16:34.092Z,6.57
2023-03-06T03:19:01.170Z,7.13
2023-03-06T03:21:27.693Z,6.15
2023-03-06T03:23:54.208Z,7.57
2023-03-06T03:26:22.160Z,7.25
2023-03-06T03:28:48.833Z,7.63
2023-03-06T03:31:15.308Z,11.00
2023-03-06T03:33:42.233Z,9.85
2023-03-06T03:36:09.856Z,7.82
2023-03-06T03:38:37.204Z,7.35
2023-03-06T03:41:04.448Z,7.95
2023-03-06T03:43:31.376Z,7.30
2023-03-06T03:45:57.787Z,6.07
2023-03-06T03:48:24.187Z,7.43
2023-03-06T03:50:50.782Z,7.57
2023-03-06T03:53:17.328Z,6.90
2023-03-06T03:55:43.791Z,7.00
2023-03-06T03:58:10.292Z,7.65
2023-03-06T04:00:36.678Z,6.75
2023-03-06T04:03:03.266Z,7.20
2023-03-06T04:05:29.802Z,6.88
2023-03-06T04:07:56.426Z,7.85
2023-03-06T04:10:24.005Z,7.07
2023-03-06T04:12:50.433Z,7.47
2023-03-06T04:15:17.050Z,7.47
2023-03-06T04:17:43.462Z,8.05
2023-03-06T04:20:12.312Z,8.18
2023-03-06T04:22:38.870Z,8.32
2023-03-06T04:25:05.737Z,9.52
2023-03-06T04:27:32.219Z,8.68
2023-03-06T04:29:58.710Z,8.88
2023-03-06T04:32:25.324Z,8.55
2023-03-06T04:34:54.310Z,8.35
2023-03-06T04:37:22.730Z,7.70
2023-03-06T04:39:50.023Z,7.80
2023-03-06T04:42:16.506Z,7.65
2023-03-06T04:44:43.376Z,8.82
2023-03-06T04:47:10.094Z,8.00
2023-03-06T04:49:46.667Z,8.65
2023-03-06T04:52:13.177Z,7.80
2023-03-06T04:54:43.112Z,7.93
2023-03-06T04:57:10.414Z,7.60
2023-03-06T04:59:39.103Z,7.72
2023-03-06T05:02:06.704Z,9.13
2023-03-06T05:04:33.230Z,8.60
2023-03-06T05:06:59.638Z,7.65
2023-03-06T05:09:27.286Z,8.25
2023-03-06T05:11:53.726Z,7.40
2023-03-06T05:14:22.278Z,8.45
2023-03-06T05:16:48.787Z,8.68
2023-03-06T05:19:15.356Z,8.38
2023-03-06T05:21:41.785Z,6.90
2023-03-06T05:24:09.361Z,7.45
2023-03-06T05:26:35.792Z,7.03
2023-03-06T05:29:02.280Z,8.32
2023-03-06T05:31:28.794Z,7.05
2023-03-06T05:33:55.318Z,8.40
2023-03-06T05:36:21.757Z,7.43
2023-03-06T05:38:48.261Z,8.65
2023-03-06T05:41:15.288Z,9.80
2023-03-06T05:43:42.344Z,8.82
2023-03-06T05:46:11.196Z,8.70
2023-03-06T05:48:38.012Z,8.77
2023-03-06T05:51:05.579Z,8.20
2023-03-06T05:53:33.277Z,8.93
2023-03-06T05:56:02.649Z,9.13
2023-03-06T05:58:30.502Z,7.57
2023-03-06T06:00:57.953Z,8.23
2023-03-06T06:03:25.189Z,8.27
2023-03-06T06:05:52.731Z,9.13
2023-03-06T06:08:21.167Z,7.70
2023-03-06T06:10:47.687Z,7.78
2023-03-06T06:13:14.129Z,9.25
2023-03-06T06:15:40.756Z,8.38
2023-03-06T06:18:08.012Z,8.32
2023-03-06T06:20:37.483Z,8.63
2023-03-06T06:23:04.117Z,7.90
2023-03-06T06:25:30.614Z,8.98
2023-03-06T06:27:57.831Z,9.30
2023-03-06T06:30:24.716Z,7.80
2023-03-06T06:32:51.137Z,8.45
2023-03-06T06:35:26.625Z,8.38
2023-03-06T06:37:53.184Z,8.65
2023-03-06T06:40:24.275Z,10.07
2023-03-06T06:42:52.410Z,8.75
2023-03-06T06:45:18.918Z,8.55
2023-03-06T06:47:46.198Z,8.73
2023-03-06T06:50:13.739Z,8.27
2023-03-06T06:52:40.445Z,7.80
2023-03-06T06:55:07.445Z,8.93
2023-03-06T06:57:34.050Z,9.30
2023-03-06T07:00:00.598Z,9.63
2023-03-06T07:02:27.239Z,9.55
2023-03-06T07:05:04.291Z,9.93
2023-03-06T07:07:35.513Z,9.50
2023-03-06T07:10:05.547Z,10.80
2023-03-06T07:12:32.906Z,10.85
2023-03-06T07:14:59.530Z,9.70
2023-03-06T07:17:31.481Z,11.38
2023-03-06T07:22:24.610Z,9.82
2023-03-06T07:24:51.114Z,10.07
2023-03-06T07:27:17.576Z,9.50
2023-03-06T07:29:44.574Z,10.52
2023-03-06T07:32:11.910Z,9.73
2023-03-06T07:34:39.480Z,10.32
2023-03-06T07:37:05.978Z,9.70
2023-03-06T07:39:38.449Z,9.43
2023-03-06T07:42:07.510Z,10.50
2023-03-06T07:44:38.034Z,11.13
2023-03-06T07:47:05.251Z,11.13
2023-03-06T07:49:32.355Z,11.52
2023-03-06T07:51:59.024Z,10.90
2023-03-06T07:54:25.453Z,11.70
2023-03-06T07:56:52.621Z,11.88
2023-03-06T07:59:19.130Z,9.82
2023-03-06T08:01:45.557Z,11.95
2023-03-06T08:04:12.089Z,11.55
2023-03-06T08:06:38.526Z,11.43
2023-03-06T08:09:10.045Z,12.60
2023-03-06T08:11:36.503Z,11.05
2023-03-06T08:14:03.036Z,11.20
2023-03-06T08:16:30.592Z,12.52
2023-03-06T08:18:58.254Z,11.30
2023-03-06T08:21:26.892Z,11.55
2023-03-06T08:23:53.468Z,12.05
2023-03-06T08:26:22.981Z,12.10
2023-03-06T08:28:51.604Z,12.07
2023-03-06T08:31:28.999Z,12.13
2023-03-06T08:33:56.997Z,12.35
2023-03-06T08:36:24.032Z,12.10
2023-03-06T08:38:51.775Z,11.25
2023-03-06T08:41:19.831Z,9.55
2023-03-06T08:43:47.080Z,11.95
2023-03-06T08:46:14.161Z,11.57
2023-03-06T08:48:41.822Z,11.38
2023-03-06T08:51:09.334Z,10.48
2023-03-06T08:53:43.026Z,11.07
2023-03-06T08:56:25.112Z,11.65
2023-03-06T08:58:52.410Z,10.65
2023-03-06T09:01:25.346Z,10.57
2023-03-06T09:03:54.483Z,10.98
2023-03-06T09:06:22.866Z,9.90
2023-03-06T09:08:55.109Z,9.95
2023-03-06T09:11:23.078Z,10.63
2023-03-06T09:13:49.604Z,10.25
2023-03-06T09:16:16.354Z,10.57
2023-03-06T09:18:42.848Z,8.93
2023-03-06T09:21:10.071Z,10.23
2023-03-06T09:23:39.445Z,10.57
2023-03-06T09:26:07.054Z,9.10
2023-03-06T09:28:36.695Z,9.27
2023-03-06T09:31:11.503Z,8.50
2023-03-06T09:33:38.326Z,8.82
2023-03-06T09:36:06.776Z,8.35
2023-03-06T09:38:34.249Z,8.68
2023-03-06T09:41:28.869Z,8.55
2023-03-06T09:44:04.862Z,8.23
2023-03-06T09:47:00.925Z,7.40
2023-03-06T09:50:05.643Z,7.63
2023-03-06T09:52:48.145Z,7.60
2023-03-06T09:55:24.235Z,8.68
2023-03-06T09:58:21.144Z,7.40
2023-03-06T10:01:00.033Z,8.05
2023-03-06T10:03:51.142Z,7.18
2023-03-06T10:06:24.974Z,6.30
2023-03-06T10:09:17.737Z,7.13
2023-03-06T10:11:51.482Z,6.95
2023-03-06T10:14:37.321Z,7.30
2023-03-06T10:17:05.588Z,7.28
2023-03-06T10:19:38.082Z,7.45
2023-03-06T10:22:18.324Z,7.75
2023-03-06T10:25:13.276Z,7.88
2023-03-06T10:27:53.821Z,7.53
2023-03-06T10:30:41.429Z,6.82
2023-03-06T10:33:13.656Z,5.80
2023-03-06T10:35:48.559Z,7.18
2023-03-06T10:38:22.637Z,7.38
2023-03-06T10:41:00.331Z,6.10
2023-03-06T10:43:27.422Z,6.10
2023-03-06T10:45:54.000Z,7.30
2023-03-06T10:48:24.288Z,6.07
2023-03-06T10:50:52.869Z,7.55
2023-03-06T10:53:22.766Z,7.93
2023-03-06T10:55:58.842Z,6.68
2023-03-06T10:58:32.482Z,7.70
2023-03-06T11:01:06.835Z,6.40
2023-03-06T11:03:36.149Z,7.60
2023-03-06T11:06:15.372Z,5.78
2023-03-06T11:08:44.195Z,5.38
2023-03-06T11:11:36.520Z,6.40
2023-03-06T11:14:23.113Z,6.40
2023-03-06T11:16:53.738Z,6.10
2023-03-06T11:19:29.232Z,6.65
2023-03-06T11:22:06.109Z,5.40
2023-03-06T11:24:39.490Z,7.15
2023-03-06T11:27:16.690Z,6.30
2023-03-06T11:29:47.881Z,6.47
2023-03-06T11:32:32.585Z,5.80
2023-03-06T11:35:20.938Z,6.13
2023-03-06T11:38:02.921Z,6.55
2023-03-06T11:40:37.077Z,5.95
2023-03-06T11:43:36.026Z,5.38
2023-03-06T11:46:17.668Z,6.15
2023-03-06T11:49:09.641Z,6.50
2023-03-06T11:51:45.005Z,5.90
2023-03-06T11:54:13.471Z,6.13
2023-03-06T11:56:42.845Z,7.13
2023-03-06T11:59:42.134Z,7.97
2023-03-06T12:02:40.626Z,8.38
2023-03-06T12:05:26.601Z,8.65
2023-03-06T12:08:22.147Z,7.68
2023-03-06T12:10:57.516Z,9.82
2023-03-06T12:16:49.663Z,8.13
2023-03-06T12:19:33.111Z,9.98
2023-03-06T12:22:20.829Z,10.57
2023-03-06T12:24:59.470Z,8.50
2023-03-06T12:27:36.082Z,11.90
2023-03-06T12:30:14.994Z,11.15
2023-03-06T12:32:51.642Z,10.18
2023-03-06T12:35:44.729Z,10.57
2023-03-06T12:38:47.160Z,8.80
2023-03-06T12:46:49.309Z,8.40
2023-03-06T12:49:32.335Z,10.43
2023-03-06T12:52:00.989Z,8.48
2023-03-06T12:54:30.512Z,10.55
2023-03-06T12:56:59.302Z,9.27
2023-03-06T12:59:36.451Z,9.85
2023-03-06T13:02:47.442Z,9.32
2023-03-06T13:05:13.910Z,8.60
2023-03-06T13:07:52.848Z,7.70
2023-03-06T13:10:39.278Z,7.88
2023-03-06T13:13:18.901Z,8.02
2023-03-06T13:15:46.893Z,5.95
2023-03-06T13:18:24.474Z,7.07
2023-03-06T13:20:55.278Z,7.47
2023-03-06T13:23:31.048Z,7.50
2023-03-06T13:26:02.668Z,8.20
2023-03-06T13:28:47.604Z,6.82
2023-03-06T13:31:27.720Z,7.47
2023-03-06T13:34:06.418Z,7.78
2023-03-06T13:36:34.644Z,6.97
2023-03-06T13:39:02.085Z,9.07
2023-03-06T13:41:31.655Z,7.13
2023-03-06T13:44:06.024Z,7.43
2023-03-06T13:46:35.583Z,6.40
2023-03-06T13:49:24.858Z,8.23
2023-03-06T13:51:54.387Z,6.82
2023-03-06T13:54:30.779Z,6.63
2023-03-06T13:57:29.146Z,6.63
2023-03-06T14:00:23.806Z,6.15
2023-03-06T14:03:09.562Z,7.57
2023-03-06T14:05:45.846Z,9.70
2023-03-06T14:08:34.157Z,6.38
2023-03-06T14:11:27.223Z,7.28
2023-03-06T14:13:56.722Z,5.32
2023-03-06T14:16:32.705Z,5.57
2023-03-06T14:19:03.981Z,6.40
2023-03-06T14:21:39.477Z,6.70
2023-03-06T14:24:19.357Z,5.70
2023-03-06T14:26:51.565Z,6.85
2023-03-06T14:29:28.495Z,8.13
2023-03-06T14:31:59.649Z,7.28
2023-03-06T14:34:28.997Z,5.18
2023-03-06T14:36:59.889Z,6.45
2023-03-06T14:39:42.032Z,4.90
2023-03-06T14:42:25.944Z,6.10
2023-03-06T14:45:03.130Z,5.53
2023-03-06T14:47:32.337Z,5.68
2023-03-06T14:50:25.795Z,4.70
2023-03-06T14:52:57.168Z,6.20
2023-03-06T14:55:28.233Z,5.70
2023-03-06T14:58:14.268Z,4.65
2023-03-06T15:00:46.988Z,5.18
2023-03-06T15:03:17.984Z,4.97
2023-03-06T15:05:46.889Z,4.90
2023-03-06T15:08:19.419Z,5.55
2023-03-06T15:10:58.821Z,6.30
2023-03-06T15:13:27.234Z,4.60
2023-03-06T15:16:13.022Z,6.05
2023-03-06T15:18:56.383Z,6.30
2023-03-06T15:21:24.915Z,5.70
2023-03-06T15:23:54.278Z,6.38
2023-03-06T15:26:33.668Z,6.35
2023-03-06T15:29:09.019Z,6.05
2023-03-06T15:31:46.183Z,6.30
2023-03-06T15:34:23.471Z,6.50
2023-03-06T15:36:54.527Z,6.45
2023-03-06T15:39:41.295Z,7.60
2023-03-06T15:42:21.341Z,6.85
2023-03-06T15:44:49.936Z,6.75
2023-03-06T15:47:17.590Z,6.03
2023-03-06T15:49:53.079Z,7.20
2023-03-06T15:52:20.948Z,6.28
2023-03-06T15:54:47.816Z,7.60
2023-03-06T15:57:34.573Z,7.03
2023-03-06T16:00:26.662Z,8.73
2023-03-06T16:02:54.790Z,7.85
2023-03-06T16:05:21.870Z,8.05
2023-03-06T16:07:49.222Z,7.85
2023-03-06T16:10:18.521Z,7.70
2023-03-06T16:12:48.666Z,7.28
2023-03-06T16:15:22.293Z,7.10
2023-03-06T16:17:49.479Z,7.22
2023-03-06T16:20:19.950Z,7.20
2023-03-06T16:22:48.029Z,8.30
2023-03-06T16:25:28.128Z,6.63
2023-03-06T16:27:58.677Z,9.52
2023-03-06T16:30:32.690Z,7.72
2023-03-06T16:33:00.249Z,8.95
2023-03-06T16:35:27.225Z,8.70
2023-03-06T16:37:54.871Z,7.90
2023-03-06T16:40:32.383Z,8.20
2023-03-06T16:42:58.817Z,7.43
2023-03-06T16:45:25.260Z,7.97
2023-03-06T16:47:51.733Z,6.93
2023-03-06T16:50:24.268Z,10.60
2023-03-06T16:52:52.376Z,8.00
2023-03-06T16:55:19.186Z,7.55
2023-03-06T16:57:45.853Z,6.72
2023-03-06T17:00:19.977Z,7.13
2023-03-06T17:02:55.501Z,7.78
2023-03-06T17:05:23.904Z,8.23
2023-03-06T17:07:50.508Z,9.27
2023-03-06T17:10:19.377Z,11.82
2023-03-06T17:12:45.904Z,12.63
2023-03-06T17:15:13.543Z,9.60
2023-03-06T17:17:40.060Z,9.38
2023-03-06T17:20:08.354Z,7.93
2023-03-06T17:22:36.179Z,6.40
2023-03-06T17:25:17.700Z,7.75
2023-03-06T17:27:52.350Z,7.38
2023-03-06T17:30:18.936Z,7.80
2023-03-06T17:32:46.458Z,7.63
2023-03-06T17:35:33.902Z,9.07
2023-03-06T17:38:00.453Z,7.88
2023-03-06T17:40:27.090Z,8.18
2023-03-06T17:42:56.790Z,10.43
2023-03-06T17:45:23.296Z,11.48
2023-03-06T17:47:53.177Z,8.70
2023-03-06T17:50:19.654Z,9.40
2023-03-06T17:52:46.223Z,8.70
2023-03-06T17:55:18.436Z,8.52
2023-03-06T17:57:45.069Z,8.38
2023-03-06T18:00:18.229Z,8.43
2023-03-06T18:02:45.617Z,8.40
2023-03-06T18:05:13.323Z,8.68
2023-03-06T18:07:39.856Z,7.47
2023-03-06T18:10:06.908Z,7.75
2023-03-06T18:12:33.385Z,7.35
2023-03-06T18:14:59.919Z,7.55
2023-03-06T18:17:26.407Z,7.50
2023-03-06T18:19:52.926Z,6.90
2023-03-06T18:22:19.438Z,8.30
2023-03-06T18:24:45.992Z,8.02
2023-03-06T18:27:16.634Z,7.55
2023-03-06T18:29:43.305Z,7.95
2023-03-06T18:32:10.799Z,7.38
2023-03-06T18:34:37.553Z,7.47
2023-03-06T18:37:04.113Z,7.82
2023-03-06T18:39:30.664Z,8.52
2023-03-06T18:41:57.182Z,8.20
2023-03-06T18:44:24.707Z,7.80
2023-03-06T18:46:51.134Z,7.60
2023-03-06T18:49:18.002Z,10.00
2023-03-06T18:51:44.531Z,10.43
2023-03-06T18:54:11.741Z,9.98
2023-03-06T18:56:39.820Z,9.32
2023-03-06T18:59:07.008Z,10.35
2023-03-06T19:01:33.640Z,8.20
2023-03-06T19:04:04.240Z,9.55
2023-03-06T19:06:32.780Z,14.00
2023-03-06T19:08:59.527Z,9.65
2023-03-06T19:11:26.817Z,10.20
2023-03-06T19:13:55.534Z,9.15
2023-03-06T19:16:25.950Z,8.25
2023-03-06T19:18:56.065Z,7.63
2023-03-06T19:21:25.833Z,9.38
2023-03-06T19:23:52.363Z,9.13
2023-03-06T19:26:19.024Z,8.82
2023-03-06T19:28:46.209Z,8.02
2023-03-06T19:31:19.626Z,8.27
2023-03-06T19:33:56.618Z,8.98
2023-03-06T19:36:27.681Z,8.55
2023-03-06T19:38:56.156Z,8.50
2023-03-06T19:41:23.342Z,7.78
2023-03-06T19:43:53.825Z,8.25
2023-03-06T19:46:23.251Z,9.05
2023-03-06T19:49:01.282Z,9.15
2023-03-06T19:51:28.277Z,8.77
2023-03-06T19:53:57.961Z,9.50
2023-03-06T19:56:26.822Z,8.93
2023-03-06T19:58:54.783Z,8.70
2023-03-06T20:01:24.929Z,9.10
2023-03-06T20:04:00.387Z,9.15
2023-03-06T20:06:33.772Z,8.85
2023-03-06T20:09:05.833Z,9.35
2023-03-06T20:11:33.492Z,9.88
2023-03-06T20:14:01.886Z,10.50
2023-03-06T20:16:28.938Z,10.52
2023-03-06T20:18:58.623Z,11.93
2023-03-06T20:21:26.124Z,11.10
2023-03-06T20:23:58.044Z,12.50
2023-03-06T20:28:51.918Z,11.90
2023-03-06T20:31:21.621Z,13.88
2023-03-06T20:33:50.467Z,13.10
2023-03-06T20:36:27.475Z,12.75
2023-03-06T20:38:53.917Z,12.38
2023-03-06T20:41:23.707Z,12.32
2023-03-06T20:43:51.327Z,13.15
2023-03-06T20:46:19.086Z,12.93
2023-03-06T20:48:48.545Z,11.60
2023-03-06T20:51:24.296Z,12.70
2023-03-06T20:53:53.132Z,12.02
2023-03-06T20:56:22.082Z,11.50
2023-03-06T20:58:50.502Z,12.52
2023-03-06T21:01:23.288Z,12.90
2023-03-06T21:03:50.742Z,13.05
2023-03-06T21:06:17.905Z,13.68
2023-03-06T21:08:44.474Z,13.13
2023-03-06T21:11:10.966Z,12.88
2023-03-06T21:13:39.420Z,12.38
2023-03-06T21:16:07.642Z,14.20
2023-03-06T21:18:34.193Z,15.10
2023-03-06T21:21:06.549Z,14.32
2023-03-06T21:23:33.019Z,12.68
2023-03-06T21:26:13.061Z,13.77
2023-03-06T21:28:40.392Z,12.75
2023-03-06T21:31:11.718Z,13.30
2023-03-06T21:33:39.212Z,12.52
2023-03-06T21:36:06.727Z,12.85
2023-03-06T21:38:33.772Z,12.38
2023-03-06T21:41:11.882Z,13.30
2023-03-06T21:43:38.894Z,12.20
2023-03-06T21:46:07.946Z,13.43
2023-03-06T21:48:34.864Z,12.30
2023-03-06T21:51:12.857Z,12.45
2023-03-06T21:53:42.574Z,12.27
2023-03-06T21:56:10.621Z,12.43
2023-03-06T21:58:37.342Z,12.05
2023-03-06T22:01:12.509Z,11.65
2023-03-06T22:03:39.370Z,11.35
2023-03-06T22:06:18.864Z,10.57
2023-03-06T22:08:45.598Z,11.32
2023-03-06T22:11:15.226Z,11.38
2023-03-06T22:13:41.880Z,11.10
2023-03-06T22:16:09.004Z,12.27
2023-03-06T22:18:36.907Z,10.75
2023-03-06T22:21:09.594Z,11.30
2023-03-06T22:23:36.676Z,11.90
2023-03-06T22:26:05.120Z,11.75
2023-03-06T22:28:31.822Z,11.55
2023-03-06T22:31:25.908Z,13.07
2023-03-06T22:33:55.794Z,11.25
2023-03-06T22:36:23.615Z,11.80
2023-03-06T22:38:54.259Z,12.60
2023-03-06T22:41:21.719Z,12.77
2023-03-06T22:43:48.293Z,11.32
2023-03-06T22:46:16.656Z,12.02
2023-03-06T22:48:43.952Z,11.93
2023-03-06T22:51:13.976Z,12.30
2023-03-06T22:53:41.263Z,13.00
2023-03-06T22:56:11.002Z,9.95
2023-03-06T22:58:37.858Z,8.55
2023-03-06T23:01:12.637Z,11.05
2023-03-06T23:03:41.104Z,11.43
2023-03-06T23:06:21.321Z,11.80
2023-03-06T23:08:57.002Z,12.02
2023-03-06T23:11:30.740Z,10.40
2023-03-06T23:13:57.984Z,10.75
2023-03-06T23:16:25.197Z,10.40
2023-03-06T23:18:53.026Z,9.30
2023-03-06T23:21:21.781Z,11.15
2023-03-06T23:23:50.209Z,9.70
2023-03-06T23:26:18.048Z,9.52
2023-03-06T23:28:44.843Z,9.98
2023-03-06T23:31:17.807Z,9.25
2023-03-06T23:33:44.310Z,9.63
2023-03-06T23:36:15.042Z,10.02
2023-03-06T23:38:42.138Z,10.00
2023-03-06T23:41:18.031Z,10.60
2023-03-06T23:43:45.109Z,9.23
2023-03-06T23:46:14.472Z,10.35
2023-03-06T23:48:41.936Z,9.18
2023-03-06T23:51:20.054Z,9.43
2023-03-06T23:53:47.867Z,9.73
2023-03-06T23:56:15.344Z,9.95
2023-03-06T23:58:42.144Z,9.98
